sensor_id;sensor_type;location;lat;lon;timestamp;pressure;altitude;pressure_sealevel;temperature;humidity
23223;BME280;11780;13.904;100.620;2022-09-02T13:49:40;100852.47;;;30.10;80.50
23223;BME280;11780;13.904;100.620;2022-09-02T13:52:19;100849.88;;;30.14;80.69
23223;BME280;11780;13.904;100.620;2022-09-02T13:55:12;100852.22;;;30.20;80.67
23223;BME280;11780;13.904;100.620;2022-09-02T13:57:46;100846.88;;;30.24;80.08
23223;BME280;11780;13.904;100.620;2022-09-02T14:00:32;100864.28;;;30.33;80.09
23223;BME280;11780;13.904;100.620;2022-09-02T14:03:04;100865.44;;;30.41;79.75
23223;BME280;11780;13.904;100.620;2022-09-02T14:05:37;100874.41;;;30.47;79.47
23223;BME280;11780;13.904;100.620;2022-09-02T14:08:25;100869.88;;;30.51;79.39
23223;BME280;11780;13.904;100.620;2022-09-02T14:10:58;100876.44;;;30.55;78.99
23223;BME280;11780;13.904;100.620;2022-09-02T14:13:44;100886.84;;;30.58;78.67
23223;BME280;11780;13.904;100.620;2022-09-02T14:16:33;100884.56;;;30.60;79.17
23223;BME280;11780;13.904;100.620;2022-09-02T14:21:47;100901.00;;;30.65;78.73
23223;BME280;11780;13.904;100.620;2022-09-02T14:24:27;100902.78;;;30.70;78.62
23223;BME280;11780;13.904;100.620;2022-09-02T14:26:58;100907.00;;;30.67;78.62
23223;BME280;11780;13.904;100.620;2022-09-02T14:29:29;100910.78;;;30.72;78.52
23223;BME280;11780;13.904;100.620;2022-09-02T14:32:13;100914.97;;;30.69;79.21
23223;BME280;11780;13.904;100.620;2022-09-02T14:34:45;100907.81;;;30.68;78.93
23223;BME280;11780;13.904;100.620;2022-09-02T14:37:22;100919.69;;;30.68;78.96
23223;BME280;11780;13.904;100.620;2022-09-02T14:42:29;100926.50;;;30.71;78.75
23223;BME280;11780;13.904;100.620;2022-09-02T14:45:00;100922.94;;;30.71;79.19
23223;BME280;11780;13.904;100.620;2022-09-02T14:47:36;100932.88;;;30.72;78.73
23223;BME280;11780;13.904;100.620;2022-09-02T14:50:10;100923.13;;;30.74;78.69
23223;BME280;11780;13.904;100.620;2022-09-02T14:52:49;100930.22;;;30.66;78.80
23223;BME280;11780;13.904;100.620;2022-09-02T14:55:58;100939.31;;;30.58;79.49
23223;BME280;11780;13.904;100.620;2022-09-02T14:58:28;100939.41;;;30.53;79.76
23223;BME280;11780;13.904;100.620;2022-09-02T15:01:00;100932.44;;;30.56;79.80
23223;BME280;11780;13.904;100.620;2022-09-02T15:03:36;100931.38;;;30.65;78.91
23223;BME280;11780;13.904;100.620;2022-09-02T15:06:06;100930.09;;;30.72;79.05
23223;BME280;11780;13.904;100.620;2022-09-02T15:08:41;100924.09;;;30.70;79.21
23223;BME280;11780;13.904;100.620;2022-09-02T15:11:12;100925.72;;;30.71;78.80
23223;BME280;11780;13.904;100.620;2022-09-02T15:13:47;100920.34;;;30.74;78.93
23223;BME280;11780;13.904;100.620;2022-09-02T15:16:17;100924.41;;;30.77;78.77
23223;BME280;11780;13.904;100.620;2022-09-02T15:18:48;100926.72;;;30.75;78.78
23223;BME280;11780;13.904;100.620;2022-09-02T15:21:18;100934.50;;;30.73;78.78
23223;BME280;11780;13.904;100.620;2022-09-02T15:23:49;100925.56;;;30.76;78.69
23223;BME280;11780;13.904;100.620;2022-09-02T15:26:19;100915.78;;;30.70;78.75
23223;BME280;11780;13.904;100.620;2022-09-02T15:28:49;100903.28;;;30.72;78.63
23223;BME280;11780;13.904;100.620;2022-09-02T15:31:20;100915.16;;;30.73;78.64
23223;BME280;11780;13.904;100.620;2022-09-02T15:33:51;100908.19;;;30.75;78.46
23223;BME280;11780;13.904;100.620;2022-09-02T15:36:21;100905.25;;;30.72;78.73
23223;BME280;11780;13.904;100.620;2022-09-02T15:38:54;100906.06;;;30.72;79.04
23223;BME280;11780;13.904;100.620;2022-09-02T15:41:25;100903.28;;;30.72;78.53
23223;BME280;11780;13.904;100.620;2022-09-02T15:43:56;100896.97;;;30.72;78.81
23223;BME280;11780;13.904;100.620;2022-09-02T15:46:30;100896.13;;;30.71;78.66
23223;BME280;11780;13.904;100.620;2022-09-02T15:49:06;100895.00;;;30.72;78.54
23223;BME280;11780;13.904;100.620;2022-09-02T15:51:38;100888.19;;;30.70;78.68
23223;BME280;11780;13.904;100.620;2022-09-02T15:54:08;100892.56;;;30.71;78.62
23223;BME280;11780;13.904;100.620;2022-09-02T15:56:44;100892.88;;;30.69;78.49
23223;BME280;11780;13.904;100.620;2022-09-02T15:59:17;100889.81;;;30.71;78.70
23223;BME280;11780;13.904;100.620;2022-09-02T16:01:51;100892.88;;;30.69;79.01
23223;BME280;11780;13.904;100.620;2022-09-02T16:04:23;100894.34;;;30.66;78.62
23223;BME280;11780;13.904;100.620;2022-09-02T16:06:56;100888.19;;;30.70;78.49
23223;BME280;11780;13.904;100.620;2022-09-02T16:09:26;100892.88;;;30.69;78.91
23223;BME280;11780;13.904;100.620;2022-09-02T16:11:57;100891.25;;;30.68;78.58
23223;BME280;11780;13.904;100.620;2022-09-02T16:14:27;100884.94;;;30.67;78.98
23223;BME280;11780;13.904;100.620;2022-09-02T16:16:57;100896.78;;;30.68;78.90
23223;BME280;11780;13.904;100.620;2022-09-02T16:19:28;100896.31;;;30.66;78.91
23223;BME280;11780;13.904;100.620;2022-09-02T16:21:58;100894.66;;;30.65;78.75
23223;BME280;11780;13.904;100.620;2022-09-02T16:24:28;100897.09;;;30.66;78.83
23223;BME280;11780;13.904;100.620;2022-09-02T16:26:58;100902.94;;;30.65;78.99
23223;BME280;11780;13.904;100.620;2022-09-02T16:29:30;100895.97;;;30.67;79.26
23223;BME280;11780;13.904;100.620;2022-09-02T16:32:01;100891.91;;;30.65;78.96
23223;BME280;11780;13.904;100.620;2022-09-02T16:34:51;100888.81;;;30.66;78.67
23223;BME280;11780;13.904;100.620;2022-09-02T16:37:24;100895.47;;;30.65;79.33
23223;BME280;11780;13.904;100.620;2022-09-02T16:39:54;100888.03;;;30.66;78.87
23223;BME280;11780;13.904;100.620;2022-09-02T16:42:24;100882.50;;;30.66;78.49
23223;BME280;11780;13.904;100.620;2022-09-02T16:44:54;100883.13;;;30.63;78.75
23223;BME280;11780;13.904;100.620;2022-09-02T16:47:24;100881.66;;;30.65;78.57
23223;BME280;11780;13.904;100.620;2022-09-02T16:49:55;100881.66;;;30.65;78.60
23223;BME280;11780;13.904;100.620;2022-09-02T16:52:25;100878.41;;;30.63;78.83
23223;BME280;11780;13.904;100.620;2022-09-02T16:55:14;100877.91;;;30.61;79.04
23223;BME280;11780;13.904;100.620;2022-09-02T16:57:48;100879.88;;;30.61;78.71
23223;BME280;11780;13.904;100.620;2022-09-02T17:00:18;100881.50;;;30.62;79.35
23223;BME280;11780;13.904;100.620;2022-09-02T17:02:48;100890.09;;;30.60;78.85
23223;BME280;11780;13.904;100.620;2022-09-02T17:05:18;100875.16;;;30.61;79.00
23223;BME280;11780;13.904;100.620;2022-09-02T17:07:48;100869.97;;;30.60;78.98
23223;BME280;11780;13.904;100.620;2022-09-02T17:10:20;100865.72;;;30.62;79.07
23223;BME280;11780;13.904;100.620;2022-09-02T17:12:53;100861.34;;;30.61;78.68
23223;BME280;11780;13.904;100.620;2022-09-02T17:15:24;100856.16;;;30.60;78.93
23223;BME280;11780;13.904;100.620;2022-09-02T17:17:54;100853.88;;;30.62;78.92
23223;BME280;11780;13.904;100.620;2022-09-02T17:20:25;100863.63;;;30.59;78.94
23223;BME280;11780;13.904;100.620;2022-09-02T17:23:14;100862.47;;;30.60;79.33
23223;BME280;11780;13.904;100.620;2022-09-02T17:25:45;100857.28;;;30.59;79.15
23223;BME280;11780;13.904;100.620;2022-09-02T17:28:15;100851.75;;;30.59;79.28
23223;BME280;11780;13.904;100.620;2022-09-02T17:30:45;100845.13;;;30.60;79.23
23223;BME280;11780;13.904;100.620;2022-09-02T17:33:16;100849.00;;;30.59;79.18
23223;BME280;11780;13.904;100.620;2022-09-02T17:35:56;100849.84;;;30.59;79.30
23223;BME280;11780;13.904;100.620;2022-09-02T17:38:27;100848.19;;;30.58;79.25
23223;BME280;11780;13.904;100.620;2022-09-02T17:40:57;100843.47;;;30.59;79.48
23223;BME280;11780;13.904;100.620;2022-09-02T17:43:46;100841.06;;;30.57;79.24
23223;BME280;11780;13.904;100.620;2022-09-02T17:46:16;100845.44;;;30.58;79.40
23223;BME280;11780;13.904;100.620;2022-09-02T17:48:46;100836.81;;;30.60;79.12
23223;BME280;11780;13.904;100.620;2022-09-02T17:51:36;100836.50;;;30.61;79.47
23223;BME280;11780;13.904;100.620;2022-09-02T17:54:09;100818.13;;;30.57;79.68
23223;BME280;11780;13.904;100.620;2022-09-02T17:57:02;100820.09;;;30.56;79.36
23223;BME280;11780;13.904;100.620;2022-09-02T18:00:05;100808.22;;;30.56;79.85
23223;BME280;11780;13.904;100.620;2022-09-02T18:02:52;100798.50;;;30.58;79.71
23223;BME280;11780;13.904;100.620;2022-09-02T18:05:52;100800.44;;;30.58;79.92
23223;BME280;11780;13.904;100.620;2022-09-02T18:08:42;100796.06;;;30.57;79.47
23223;BME280;11780;13.904;100.620;2022-09-02T18:11:14;100798.81;;;30.57;79.55
23223;BME280;11780;13.904;100.620;2022-09-02T18:30:33;100768.25;;;30.53;80.42
23223;BME280;11780;13.904;100.620;2022-09-02T18:36:25;100754.97;;;30.55;80.11
23223;BME280;11780;13.904;100.620;2022-09-02T18:39:05;100754.66;;;30.57;79.90
23223;BME280;11780;13.904;100.620;2022-09-02T18:41:47;100756.91;;;30.55;80.02
23223;BME280;11780;13.904;100.620;2022-09-02T18:44:48;100750.84;;;30.52;80.22
23223;BME280;11780;13.904;100.620;2022-09-02T18:47:42;100745.69;;;30.51;80.11
23223;BME280;11780;13.904;100.620;2022-09-02T18:50:30;100749.25;;;30.51;80.38
23223;BME280;11780;13.904;100.620;2022-09-02T18:53:23;100736.59;;;30.50;80.36
23223;BME280;11780;13.904;100.620;2022-09-02T18:56:01;100740.16;;;30.51;80.09
23223;BME280;11780;13.904;100.620;2022-09-02T18:58:49;100730.56;;;30.48;80.13
23223;BME280;11780;13.904;100.620;2022-09-02T19:03:59;100717.91;;;30.47;80.36
23223;BME280;11780;13.904;100.620;2022-09-02T19:06:31;100725.06;;;30.48;80.21
23223;BME280;11780;13.904;100.620;2022-09-02T19:09:11;100723.44;;;30.47;80.34
23223;BME280;11780;13.904;100.620;2022-09-02T19:11:42;100708.81;;;30.47;80.38
23223;BME280;11780;13.904;100.620;2022-09-02T19:16:57;100712.69;;;30.46;80.51
23223;BME280;11780;13.904;100.620;2022-09-02T19:19:27;100708.31;;;30.45;80.41
23223;BME280;11780;13.904;100.620;2022-09-02T19:22:09;100707.66;;;30.48;80.50
23223;BME280;11780;13.904;100.620;2022-09-02T19:24:50;100714.31;;;30.47;80.08
23223;BME280;11780;13.904;100.620;2022-09-02T19:27:32;100709.47;;;30.44;80.46
23223;BME280;11780;13.904;100.620;2022-09-02T19:30:12;100718.22;;;30.46;80.47
23223;BME280;11780;13.904;100.620;2022-09-02T19:32:49;100709.94;;;30.46;80.55
23223;BME280;11780;13.904;100.620;2022-09-02T19:35:22;100703.94;;;30.44;80.73
23223;BME280;11780;13.904;100.620;2022-09-02T19:37:54;100710.59;;;30.43;80.25
23223;BME280;11780;13.904;100.620;2022-09-02T19:40:25;100705.09;;;30.43;80.48
23223;BME280;11780;13.904;100.620;2022-09-02T19:43:03;100706.53;;;30.40;80.46
23223;BME280;11780;13.904;100.620;2022-09-02T19:45:34;100694.69;;;30.40;80.48
23223;BME280;11780;13.904;100.620;2022-09-02T19:48:07;100705.38;;;30.41;80.71
23223;BME280;11780;13.904;100.620;2022-09-02T19:50:42;100708.47;;;30.40;80.69
23223;BME280;11780;13.904;100.620;2022-09-02T19:53:24;100698.25;;;30.40;80.76
23223;BME280;11780;13.904;100.620;2022-09-02T19:55:59;100702.47;;;30.37;80.97
23223;BME280;11780;13.904;100.620;2022-09-02T19:58:29;100700.50;;;30.38;80.51
23223;BME280;11780;13.904;100.620;2022-09-02T20:01:02;100700.50;;;30.38;81.08
23223;BME280;11780;13.904;100.620;2022-09-02T20:03:33;100700.19;;;30.40;80.92
23223;BME280;11780;13.904;100.620;2022-09-02T20:06:19;100695.47;;;30.40;80.87
23223;BME280;11780;13.904;100.620;2022-09-02T20:08:49;100701.34;;;30.38;80.98
23223;BME280;11780;13.904;100.620;2022-09-02T20:11:20;100701.63;;;30.37;80.84
23223;BME280;11780;13.904;100.620;2022-09-02T20:13:50;100702.47;;;30.37;81.01
23223;BME280;11780;13.904;100.620;2022-09-02T20:16:24;100706.03;;;30.38;81.18
23223;BME280;11780;13.904;100.620;2022-09-02T20:18:55;100705.56;;;30.36;81.39
23223;BME280;11780;13.904;100.620;2022-09-02T20:21:40;100707.00;;;30.33;81.51
23223;BME280;11780;13.904;100.620;2022-09-02T20:24:14;100711.38;;;30.34;81.15
23223;BME280;11780;13.904;100.620;2022-09-02T20:32:26;100699.84;;;30.32;81.19
23223;BME280;11780;13.904;100.620;2022-09-02T20:45:39;100692.19;;;30.29;81.52
23223;BME280;11780;13.904;100.620;2022-09-02T20:51:17;100700.47;;;30.29;82.10
23223;BME280;11780;13.904;100.620;2022-09-02T20:56:40;100699.69;;;30.29;82.10
23223;BME280;11780;13.904;100.620;2022-09-02T21:02:24;100693.38;;;30.28;82.23
23223;BME280;11780;13.904;100.620;2022-09-02T21:05:02;100690.13;;;30.26;81.94
23223;BME280;11780;13.904;100.620;2022-09-02T21:07:39;100689.78;;;30.28;81.97
23223;BME280;11780;13.904;100.620;2022-09-02T21:10:22;100692.03;;;30.26;82.48
23223;BME280;11780;13.904;100.620;2022-09-02T21:16:12;100691.25;;;30.25;82.15
23223;BME280;11780;13.904;100.620;2022-09-02T21:19:18;100703.06;;;30.26;82.31
23223;BME280;11780;13.904;100.620;2022-09-02T21:21:51;100690.13;;;30.26;82.32
23223;BME280;11780;13.904;100.620;2022-09-02T21:29:42;100700.31;;;30.26;82.26
23223;BME280;11780;13.904;100.620;2022-09-02T21:37:56;100697.88;;;30.24;82.35
23223;BME280;11780;13.904;100.620;2022-09-02T21:40:55;100691.53;;;30.23;81.94
23223;BME280;11780;13.904;100.620;2022-09-02T21:49:00;100686.34;;;30.22;82.29
23223;BME280;11780;13.904;100.620;2022-09-02T21:51:36;100690.25;;;30.21;82.49
23223;BME280;11780;13.904;100.620;2022-09-02T22:02:23;100700.94;;;30.22;82.50
23223;BME280;11780;13.904;100.620;2022-09-02T22:05:15;100701.28;;;30.21;82.43
23223;BME280;11780;13.904;100.620;2022-09-02T22:08:16;100707.94;;;30.20;82.61
23223;BME280;11780;13.904;100.620;2022-09-02T22:11:24;100710.34;;;30.21;82.41
23223;BME280;11780;13.904;100.620;2022-09-02T22:13:55;100713.44;;;30.20;81.99
23223;BME280;11780;13.904;100.620;2022-09-02T22:16:36;100702.41;;;30.20;82.34
23223;BME280;11780;13.904;100.620;2022-09-02T22:19:14;100715.72;;;30.18;82.81
23223;BME280;11780;13.904;100.620;2022-09-02T22:21:51;100716.84;;;30.17;82.49
23223;BME280;11780;13.904;100.620;2022-09-02T22:24:27;100717.97;;;30.16;82.43
23223;BME280;11780;13.904;100.620;2022-09-02T22:27:05;100723.19;;;30.17;82.50
23223;BME280;11780;13.904;100.620;2022-09-02T22:29:48;100716.69;;;30.13;82.24
23223;BME280;11780;13.904;100.620;2022-09-02T22:32:23;100719.09;;;30.15;82.14
23223;BME280;11780;13.904;100.620;2022-09-02T22:40:32;100724.44;;;30.11;82.24
23223;BME280;11780;13.904;100.620;2022-09-02T22:43:10;100725.59;;;30.10;82.28
23223;BME280;11780;13.904;100.620;2022-09-02T22:45:44;100733.56;;;30.12;82.49
23223;BME280;11780;13.904;100.620;2022-09-02T22:48:39;100735.47;;;30.11;82.44
23223;BME280;11780;13.904;100.620;2022-09-02T22:51:38;100743.47;;;30.13;82.36
23223;BME280;11780;13.904;100.620;2022-09-02T22:54:29;100754.50;;;30.13;82.48
23223;BME280;11780;13.904;100.620;2022-09-02T22:59:48;100750.09;;;30.12;82.37
23223;BME280;11780;13.904;100.620;2022-09-02T23:02:52;100748.16;;;30.12;82.67
23223;BME280;11780;13.904;100.620;2022-09-02T23:08:21;100748.78;;;30.09;82.49
23223;BME280;11780;13.904;100.620;2022-09-02T23:11:06;100753.16;;;30.10;82.63
23223;BME280;11780;13.904;100.620;2022-09-02T23:19:17;100761.13;;;30.12;82.36
23223;BME280;11780;13.904;100.620;2022-09-02T23:27:46;100756.09;;;30.14;82.73
23223;BME280;11780;13.904;100.620;2022-09-02T23:30:20;100763.91;;;30.12;82.58
23223;BME280;11780;13.904;100.620;2022-09-02T23:35:44;100757.88;;;29.87;83.55
23223;BME280;11780;13.904;100.620;2022-09-02T23:41:15;100761.06;;;29.71;84.18
23223;BME280;11780;13.904;100.620;2022-09-02T23:43:47;100773.81;;;29.67;84.79
23223;BME280;11780;13.904;100.620;2022-09-02T23:49:48;100776.84;;;29.57;85.42
23223;BME280;11780;13.904;100.620;2022-09-02T23:52:39;100774.22;;;29.52;85.27
23223;BME280;11780;13.904;100.620;2022-09-02T23:55:33;100771.78;;;29.50;85.20
23223;BME280;11780;13.904;100.620;2022-09-02T23:58:17;100775.66;;;29.49;85.38
